sensor_id;sensor_type;location;lat;lon;timestamp;temperature;humidity
9772;DHT22;4925;52.588;13.370;2023-05-10T00:01:51;14.20;96.20
9772;DHT22;4925;52.588;13.370;2023-05-10T00:04:17;14.20;96.30
9772;DHT22;4925;52.588;13.370;2023-05-10T00:06:43;14.30;96.50
9772;DHT22;4925;52.588;13.370;2023-05-10T00:09:08;14.30;96.60
9772;DHT22;4925;52.588;13.370;2023-05-10T00:11:34;14.30;96.50
9772;DHT22;4925;52.588;13.370;2023-05-10T00:14:00;14.40;96.50
9772;DHT22;4925;52.588;13.370;2023-05-10T00:16:25;14.30;96.60
9772;DHT22;4925;52.588;13.370;2023-05-10T00:18:51;14.30;96.70
9772;DHT22;4925;52.588;13.370;2023-05-10T00:21:17;14.20;96.80
9772;DHT22;4925;52.588;13.370;2023-05-10T00:23:42;14.30;96.90
9772;DHT22;4925;52.588;13.370;2023-05-10T00:26:08;14.10;97.20
9772;DHT22;4925;52.588;13.370;2023-05-10T00:28:34;14.10;97.30
9772;DHT22;4925;52.588;13.370;2023-05-10T00:30:59;14.10;97.50
9772;DHT22;4925;52.588;13.370;2023-05-10T00:33:25;14.10;97.70
9772;DHT22;4925;52.588;13.370;2023-05-10T00:35:51;14.00;98.10
9772;DHT22;4925;52.588;13.370;2023-05-10T00:38:16;13.90;98.30
9772;DHT22;4925;52.588;13.370;2023-05-10T00:40:42;13.80;98.70
9772;DHT22;4925;52.588;13.370;2023-05-10T00:43:09;13.80;99.00
9772;DHT22;4925;52.588;13.370;2023-05-10T00:45:36;13.70;99.20
9772;DHT22;4925;52.588;13.370;2023-05-10T00:48:03;13.70;99.50
9772;DHT22;4925;52.588;13.370;2023-05-10T00:50:30;13.60;99.70
9772;DHT22;4925;52.588;13.370;2023-05-10T00:52:57;13.50;99.90
9772;DHT22;4925;52.588;13.370;2023-05-10T00:55:24;13.40;99.90
9772;DHT22;4925;52.588;13.370;2023-05-10T00:57:50;13.30;99.90
9772;DHT22;4925;52.588;13.370;2023-05-10T01:00:15;13.40;99.90
9772;DHT22;4925;52.588;13.370;2023-05-10T01:02:45;13.20;99.90
9772;DHT22;4925;52.588;13.370;2023-05-10T01:05:11;13.10;99.90
9772;DHT22;4925;52.588;13.370;2023-05-10T01:07:37;13.10;99.90
9772;DHT22;4925;52.588;13.370;2023-05-10T01:10:05;13.10;99.90
9772;DHT22;4925;52.588;13.370;2023-05-10T01:12:31;12.90;99.90
9772;DHT22;4925;52.588;13.370;2023-05-10T01:14:57;12.80;99.90
9772;DHT22;4925;52.588;13.370;2023-05-10T01:17:23;12.80;99.90
9772;DHT22;4925;52.588;13.370;2023-05-10T01:19:49;12.80;99.90
9772;DHT22;4925;52.588;13.370;2023-05-10T01:38:50;12.80;99.90
9772;DHT22;4925;52.588;13.370;2023-05-10T01:44:33;12.80;99.90
9772;DHT22;4925;52.588;13.370;2023-05-10T01:47:05;12.70;99.90
9772;DHT22;4925;52.588;13.370;2023-05-10T01:49:39;12.70;99.90
9772;DHT22;4925;52.588;13.370;2023-05-10T01:52:09;12.60;99.90
9772;DHT22;4925;52.588;13.370;2023-05-10T01:54:45;12.70;99.90
9772;DHT22;4925;52.588;13.370;2023-05-10T01:57:16;12.70;99.90
9772;DHT22;4925;52.588;13.370;2023-05-10T01:59:45;12.50;99.90
9772;DHT22;4925;52.588;13.370;2023-05-10T02:02:14;12.60;99.90
9772;DHT22;4925;52.588;13.370;2023-05-10T02:04:41;12.50;99.90
9772;DHT22;4925;52.588;13.370;2023-05-10T02:07:08;12.50;99.90
9772;DHT22;4925;52.588;13.370;2023-05-10T02:09:35;12.60;99.90
9772;DHT22;4925;52.588;13.370;2023-05-10T02:12:03;12.50;99.90
9772;DHT22;4925;52.588;13.370;2023-05-10T02:14:33;12.50;99.90
9772;DHT22;4925;52.588;13.370;2023-05-10T02:17:02;12.50;99.90
9772;DHT22;4925;52.588;13.370;2023-05-10T02:19:31;12.40;99.90
9772;DHT22;4925;52.588;13.370;2023-05-10T02:21:59;12.40;99.90
9772;DHT22;4925;52.588;13.370;2023-05-10T02:24:26;12.30;99.90
9772;DHT22;4925;52.588;13.370;2023-05-10T02:26:54;12.30;99.90
9772;DHT22;4925;52.588;13.370;2023-05-10T02:29:24;12.30;99.90
9772;DHT22;4925;52.588;13.370;2023-05-10T02:31:55;12.20;99.90
9772;DHT22;4925;52.588;13.370;2023-05-10T02:34:26;12.20;99.90
9772;DHT22;4925;52.588;13.370;2023-05-10T02:36:54;12.10;99.90
9772;DHT22;4925;52.588;13.370;2023-05-10T02:39:21;12.10;99.90
9772;DHT22;4925;52.588;13.370;2023-05-10T02:41:48;12.20;99.90
9772;DHT22;4925;52.588;13.370;2023-05-10T02:44:18;12.20;99.90
9772;DHT22;4925;52.588;13.370;2023-05-10T02:46:44;12.20;99.90
9772;DHT22;4925;52.588;13.370;2023-05-10T02:49:10;12.20;99.90
9772;DHT22;4925;52.588;13.370;2023-05-10T02:51:39;12.10;99.90
9772;DHT22;4925;52.588;13.370;2023-05-10T02:54:12;12.10;99.90
9772;DHT22;4925;52.588;13.370;2023-05-10T02:56:45;12.00;99.90
9772;DHT22;4925;52.588;13.370;2023-05-10T02:59:12;12.00;99.90
9772;DHT22;4925;52.588;13.370;2023-05-10T03:01:38;12.00;99.90
9772;DHT22;4925;52.588;13.370;2023-05-10T03:04:04;11.90;99.90
9772;DHT22;4925;52.588;13.370;2023-05-10T03:06:30;11.90;99.90
9772;DHT22;4925;52.588;13.370;2023-05-10T03:08:56;11.90;99.90
9772;DHT22;4925;52.588;13.370;2023-05-10T03:14:57;11.80;99.90
9772;DHT22;4925;52.588;13.370;2023-05-10T03:17:31;11.80;99.90
9772;DHT22;4925;52.588;13.370;2023-05-10T03:20:08;11.80;99.90
9772;DHT22;4925;52.588;13.370;2023-05-10T03:22:43;11.80;99.90
9772;DHT22;4925;52.588;13.370;2023-05-10T03:25:11;11.70;99.90
9772;DHT22;4925;52.588;13.370;2023-05-10T03:27:40;11.70;99.90
9772;DHT22;4925;52.588;13.370;2023-05-10T03:30:11;11.70;99.90
9772;DHT22;4925;52.588;13.370;2023-05-10T03:32:37;11.80;99.90
9772;DHT22;4925;52.588;13.370;2023-05-10T03:35:12;11.70;99.90
9772;DHT22;4925;52.588;13.370;2023-05-10T03:37:38;11.70;99.90
9772;DHT22;4925;52.588;13.370;2023-05-10T03:40:05;11.80;99.90
9772;DHT22;4925;52.588;13.370;2023-05-10T03:42:31;11.80;99.90
9772;DHT22;4925;52.588;13.370;2023-05-10T03:44:56;11.80;99.90
9772;DHT22;4925;52.588;13.370;2023-05-10T03:47:22;11.80;99.90
9772;DHT22;4925;52.588;13.370;2023-05-10T03:49:48;11.80;99.90
9772;DHT22;4925;52.588;13.370;2023-05-10T03:52:13;11.80;99.90
9772;DHT22;4925;52.588;13.370;2023-05-10T03:54:39;11.80;99.90
9772;DHT22;4925;52.588;13.370;2023-05-10T03:57:04;11.80;99.90
9772;DHT22;4925;52.588;13.370;2023-05-10T03:59:30;11.80;99.90
9772;DHT22;4925;52.588;13.370;2023-05-10T04:01:56;11.90;99.90
9772;DHT22;4925;52.588;13.370;2023-05-10T04:04:22;11.90;99.90
9772;DHT22;4925;52.588;13.370;2023-05-10T04:06:48;11.90;99.90
9772;DHT22;4925;52.588;13.370;2023-05-10T04:09:14;12.00;99.90
9772;DHT22;4925;52.588;13.370;2023-05-10T04:11:40;11.90;99.90
9772;DHT22;4925;52.588;13.370;2023-05-10T04:14:06;12.00;99.90
9772;DHT22;4925;52.588;13.370;2023-05-10T04:16:31;12.00;99.90
9772;DHT22;4925;52.588;13.370;2023-05-10T04:18:57;12.00;99.90
9772;DHT22;4925;52.588;13.370;2023-05-10T04:21:23;12.00;99.90
9772;DHT22;4925;52.588;13.370;2023-05-10T04:23:48;12.00;99.90
9772;DHT22;4925;52.588;13.370;2023-05-10T04:26:14;12.10;99.90
9772;DHT22;4925;52.588;13.370;2023-05-10T04:28:40;12.10;99.90
9772;DHT22;4925;52.588;13.370;2023-05-10T04:31:07;12.20;99.90
9772;DHT22;4925;52.588;13.370;2023-05-10T04:33:33;12.20;99.90
9772;DHT22;4925;52.588;13.370;2023-05-10T04:36:00;12.20;99.90
9772;DHT22;4925;52.588;13.370;2023-05-10T04:38:26;12.40;99.90
9772;DHT22;4925;52.588;13.370;2023-05-10T04:40:52;12.40;99.90
9772;DHT22;4925;52.588;13.370;2023-05-10T04:43:18;12.30;99.90
9772;DHT22;4925;52.588;13.370;2023-05-10T04:45:44;12.40;99.90
9772;DHT22;4925;52.588;13.370;2023-05-10T04:48:09;12.50;99.90
9772;DHT22;4925;52.588;13.370;2023-05-10T04:50:35;12.50;99.90
9772;DHT22;4925;52.588;13.370;2023-05-10T04:53:00;12.50;99.90
9772;DHT22;4925;52.588;13.370;2023-05-10T04:55:26;12.50;99.90
9772;DHT22;4925;52.588;13.370;2023-05-10T04:57:52;12.70;99.90
9772;DHT22;4925;52.588;13.370;2023-05-10T05:00:20;12.60;99.90
9772;DHT22;4925;52.588;13.370;2023-05-10T05:02:46;12.40;99.90
9772;DHT22;4925;52.588;13.370;2023-05-10T05:05:12;12.60;99.90
9772;DHT22;4925;52.588;13.370;2023-05-10T05:07:38;12.70;99.90
9772;DHT22;4925;52.588;13.370;2023-05-10T05:10:05;12.60;99.90
9772;DHT22;4925;52.588;13.370;2023-05-10T05:12:31;12.70;99.90
9772;DHT22;4925;52.588;13.370;2023-05-10T05:14:57;12.80;99.90
9772;DHT22;4925;52.588;13.370;2023-05-10T05:17:22;12.90;99.90
9772;DHT22;4925;52.588;13.370;2023-05-10T05:19:48;12.90;99.90
9772;DHT22;4925;52.588;13.370;2023-05-10T05:22:14;12.90;99.90
9772;DHT22;4925;52.588;13.370;2023-05-10T05:24:39;13.10;99.90
9772;DHT22;4925;52.588;13.370;2023-05-10T05:27:05;13.20;99.90
9772;DHT22;4925;52.588;13.370;2023-05-10T05:29:31;13.30;99.90
9772;DHT22;4925;52.588;13.370;2023-05-10T05:31:57;13.20;99.90
9772;DHT22;4925;52.588;13.370;2023-05-10T05:34:23;13.30;99.90
9772;DHT22;4925;52.588;13.370;2023-05-10T05:36:49;13.40;99.90
9772;DHT22;4925;52.588;13.370;2023-05-10T05:39:16;13.50;99.90
9772;DHT22;4925;52.588;13.370;2023-05-10T05:41:41;13.50;99.90
9772;DHT22;4925;52.588;13.370;2023-05-10T05:44:08;13.60;99.90
9772;DHT22;4925;52.588;13.370;2023-05-10T05:46:33;13.70;99.90
9772;DHT22;4925;52.588;13.370;2023-05-10T05:48:59;13.80;99.90
9772;DHT22;4925;52.588;13.370;2023-05-10T05:51:25;13.90;99.90
9772;DHT22;4925;52.588;13.370;2023-05-10T05:53:50;14.10;99.90
9772;DHT22;4925;52.588;13.370;2023-05-10T05:56:16;14.10;99.90
9772;DHT22;4925;52.588;13.370;2023-05-10T05:58:52;14.20;99.90
9772;DHT22;4925;52.588;13.370;2023-05-10T06:01:18;14.40;99.90
9772;DHT22;4925;52.588;13.370;2023-05-10T06:03:43;14.40;99.70
9772;DHT22;4925;52.588;13.370;2023-05-10T06:06:09;14.50;99.40
9772;DHT22;4925;52.588;13.370;2023-05-10T06:08:35;14.50;99.30
9772;DHT22;4925;52.588;13.370;2023-05-10T06:11:01;14.60;99.10
9772;DHT22;4925;52.588;13.370;2023-05-10T06:13:26;14.70;98.60
9772;DHT22;4925;52.588;13.370;2023-05-10T06:16:00;14.80;98.60
9772;DHT22;4925;52.588;13.370;2023-05-10T06:18:26;14.80;98.90
9772;DHT22;4925;52.588;13.370;2023-05-10T06:20:52;14.90;98.90
9772;DHT22;4925;52.588;13.370;2023-05-10T06:23:18;15.00;98.10
9772;DHT22;4925;52.588;13.370;2023-05-10T06:25:43;15.00;98.00
9772;DHT22;4925;52.588;13.370;2023-05-10T06:28:09;15.00;97.90
9772;DHT22;4925;52.588;13.370;2023-05-10T06:30:36;15.20;97.90
9772;DHT22;4925;52.588;13.370;2023-05-10T06:33:03;15.30;97.70
9772;DHT22;4925;52.588;13.370;2023-05-10T06:35:29;15.30;97.20
9772;DHT22;4925;52.588;13.370;2023-05-10T06:37:55;15.40;97.60
9772;DHT22;4925;52.588;13.370;2023-05-10T06:40:20;15.40;97.40
9772;DHT22;4925;52.588;13.370;2023-05-10T06:42:47;15.50;96.50
9772;DHT22;4925;52.588;13.370;2023-05-10T06:45:14;15.60;96.70
9772;DHT22;4925;52.588;13.370;2023-05-10T06:47:40;15.70;96.60
9772;DHT22;4925;52.588;13.370;2023-05-10T06:50:08;15.70;96.60
9772;DHT22;4925;52.588;13.370;2023-05-10T06:52:34;15.80;96.60
9772;DHT22;4925;52.588;13.370;2023-05-10T06:55:00;15.80;96.10
9772;DHT22;4925;52.588;13.370;2023-05-10T06:57:26;15.90;96.20
9772;DHT22;4925;52.588;13.370;2023-05-10T06:59:52;16.00;95.90
9772;DHT22;4925;52.588;13.370;2023-05-10T07:02:18;16.20;95.80
9772;DHT22;4925;52.588;13.370;2023-05-10T07:04:43;16.10;95.20
9772;DHT22;4925;52.588;13.370;2023-05-10T07:07:09;16.20;95.60
9772;DHT22;4925;52.588;13.370;2023-05-10T07:09:35;16.20;95.50
9772;DHT22;4925;52.588;13.370;2023-05-10T07:12:00;16.20;94.90
9772;DHT22;4925;52.588;13.370;2023-05-10T07:14:27;16.30;95.10
9772;DHT22;4925;52.588;13.370;2023-05-10T07:16:53;16.40;95.30
9772;DHT22;4925;52.588;13.370;2023-05-10T07:19:19;16.50;95.10
9772;DHT22;4925;52.588;13.370;2023-05-10T07:21:45;16.50;94.70
9772;DHT22;4925;52.588;13.370;2023-05-10T07:24:10;16.50;94.80
9772;DHT22;4925;52.588;13.370;2023-05-10T07:26:36;16.40;94.70
9772;DHT22;4925;52.588;13.370;2023-05-10T07:29:02;16.60;95.10
9772;DHT22;4925;52.588;13.370;2023-05-10T07:31:28;16.70;94.70
9772;DHT22;4925;52.588;13.370;2023-05-10T07:33:54;16.70;94.60
9772;DHT22;4925;52.588;13.370;2023-05-10T07:36:19;16.80;94.50
9772;DHT22;4925;52.588;13.370;2023-05-10T07:38:45;16.90;94.60
9772;DHT22;4925;52.588;13.370;2023-05-10T07:41:14;16.90;94.20
9772;DHT22;4925;52.588;13.370;2023-05-10T07:43:39;17.10;94.50
9772;DHT22;4925;52.588;13.370;2023-05-10T07:46:05;17.20;93.80
9772;DHT22;4925;52.588;13.370;2023-05-10T07:48:31;17.30;93.90
9772;DHT22;4925;52.588;13.370;2023-05-10T07:50:57;17.50;93.80
9772;DHT22;4925;52.588;13.370;2023-05-10T07:53:22;17.50;93.10
9772;DHT22;4925;52.588;13.370;2023-05-10T07:55:52;17.60;93.00
9772;DHT22;4925;52.588;13.370;2023-05-10T07:58:19;17.50;93.00
9772;DHT22;4925;52.588;13.370;2023-05-10T08:00:45;17.60;93.00
9772;DHT22;4925;52.588;13.370;2023-05-10T08:03:11;17.70;93.10
9772;DHT22;4925;52.588;13.370;2023-05-10T08:05:37;17.80;92.80
9772;DHT22;4925;52.588;13.370;2023-05-10T08:08:02;17.90;92.90
9772;DHT22;4925;52.588;13.370;2023-05-10T08:10:28;17.90;92.40
9772;DHT22;4925;52.588;13.370;2023-05-10T08:12:54;17.90;92.40
9772;DHT22;4925;52.588;13.370;2023-05-10T08:15:19;18.00;92.10
9772;DHT22;4925;52.588;13.370;2023-05-10T08:17:45;18.00;92.00
9772;DHT22;4925;52.588;13.370;2023-05-10T08:20:11;17.90;92.30
9772;DHT22;4925;52.588;13.370;2023-05-10T08:22:38;18.10;92.80
9772;DHT22;4925;52.588;13.370;2023-05-10T08:25:04;18.10;92.10
9772;DHT22;4925;52.588;13.370;2023-05-10T08:27:30;18.40;92.30
9772;DHT22;4925;52.588;13.370;2023-05-10T08:29:56;18.50;91.90
9772;DHT22;4925;52.588;13.370;2023-05-10T08:32:21;18.70;91.30
9772;DHT22;4925;52.588;13.370;2023-05-10T08:34:47;18.70;91.40
9772;DHT22;4925;52.588;13.370;2023-05-10T08:37:13;18.90;91.50
9772;DHT22;4925;52.588;13.370;2023-05-10T08:39:38;19.00;90.50
9772;DHT22;4925;52.588;13.370;2023-05-10T08:42:05;19.10;90.20
9772;DHT22;4925;52.588;13.370;2023-05-10T08:44:35;19.20;90.10
9772;DHT22;4925;52.588;13.370;2023-05-10T08:47:06;19.30;90.00
9772;DHT22;4925;52.588;13.370;2023-05-10T08:49:33;19.40;88.90
9772;DHT22;4925;52.588;13.370;2023-05-10T08:52:03;19.40;88.10
9772;DHT22;4925;52.588;13.370;2023-05-10T08:54:31;19.50;87.90
9772;DHT22;4925;52.588;13.370;2023-05-10T08:56:56;19.70;88.00
9772;DHT22;4925;52.588;13.370;2023-05-10T08:59:22;20.00;86.10
9772;DHT22;4925;52.588;13.370;2023-05-10T09:01:49;19.90;84.70
9772;DHT22;4925;52.588;13.370;2023-05-10T09:04:15;20.00;85.30
9772;DHT22;4925;52.588;13.370;2023-05-10T09:06:41;20.20;84.90
9772;DHT22;4925;52.588;13.370;2023-05-10T09:09:07;20.60;84.20
9772;DHT22;4925;52.588;13.370;2023-05-10T09:11:33;20.70;83.20
9772;DHT22;4925;52.588;13.370;2023-05-10T09:13:58;20.80;81.10
9772;DHT22;4925;52.588;13.370;2023-05-10T09:16:24;20.70;78.90
9772;DHT22;4925;52.588;13.370;2023-05-10T09:18:50;20.80;78.90
9772;DHT22;4925;52.588;13.370;2023-05-10T09:21:15;20.90;78.40
9772;DHT22;4925;52.588;13.370;2023-05-10T09:23:48;20.90;77.20
9772;DHT22;4925;52.588;13.370;2023-05-10T09:26:15;21.00;77.70
9772;DHT22;4925;52.588;13.370;2023-05-10T09:28:52;21.30;78.30
9772;DHT22;4925;52.588;13.370;2023-05-10T09:31:18;21.40;77.80
9772;DHT22;4925;52.588;13.370;2023-05-10T09:33:48;21.70;75.50
9772;DHT22;4925;52.588;13.370;2023-05-10T09:36:15;21.80;73.90
9772;DHT22;4925;52.588;13.370;2023-05-10T09:38:48;21.90;72.10
9772;DHT22;4925;52.588;13.370;2023-05-10T09:41:21;22.00;71.40
9772;DHT22;4925;52.588;13.370;2023-05-10T09:43:47;21.90;70.10
9772;DHT22;4925;52.588;13.370;2023-05-10T09:46:13;21.90;68.60
9772;DHT22;4925;52.588;13.370;2023-05-10T09:48:42;21.70;69.80
9772;DHT22;4925;52.588;13.370;2023-05-10T09:51:09;21.40;70.80
9772;DHT22;4925;52.588;13.370;2023-05-10T09:53:34;21.40;70.10
9772;DHT22;4925;52.588;13.370;2023-05-10T09:56:00;21.60;70.30
9772;DHT22;4925;52.588;13.370;2023-05-10T09:58:26;21.60;70.40
9772;DHT22;4925;52.588;13.370;2023-05-10T10:00:52;21.90;69.10
9772;DHT22;4925;52.588;13.370;2023-05-10T10:03:20;21.80;67.90
9772;DHT22;4925;52.588;13.370;2023-05-10T10:05:47;21.70;67.70
9772;DHT22;4925;52.588;13.370;2023-05-10T10:08:14;22.00;69.00
9772;DHT22;4925;52.588;13.370;2023-05-10T10:10:40;22.10;67.50
9772;DHT22;4925;52.588;13.370;2023-05-10T10:13:06;22.00;67.80
9772;DHT22;4925;52.588;13.370;2023-05-10T10:15:33;22.20;67.90
9772;DHT22;4925;52.588;13.370;2023-05-10T10:17:59;22.40;67.10
9772;DHT22;4925;52.588;13.370;2023-05-10T10:20:26;22.70;66.10
9772;DHT22;4925;52.588;13.370;2023-05-10T10:22:52;22.50;62.60
9772;DHT22;4925;52.588;13.370;2023-05-10T10:25:19;22.80;63.30
9772;DHT22;4925;52.588;13.370;2023-05-10T10:30:39;23.00;62.40
9772;DHT22;4925;52.588;13.370;2023-05-10T10:35:54;23.20;60.10
9772;DHT22;4925;52.588;13.370;2023-05-10T10:38:21;22.90;59.30
9772;DHT22;4925;52.588;13.370;2023-05-10T10:40:47;23.40;60.60
9772;DHT22;4925;52.588;13.370;2023-05-10T10:43:23;23.20;59.70
9772;DHT22;4925;52.588;13.370;2023-05-10T10:46:09;23.10;59.70
9772;DHT22;4925;52.588;13.370;2023-05-10T10:48:35;23.60;59.50
9772;DHT22;4925;52.588;13.370;2023-05-10T10:51:01;24.00;58.60
9772;DHT22;4925;52.588;13.370;2023-05-10T10:53:28;24.10;57.20
9772;DHT22;4925;52.588;13.370;2023-05-10T10:56:07;24.40;56.10
9772;DHT22;4925;52.588;13.370;2023-05-10T10:58:36;24.60;55.20
9772;DHT22;4925;52.588;13.370;2023-05-10T11:01:17;24.50;54.30
9772;DHT22;4925;52.588;13.370;2023-05-10T11:06:35;25.10;52.80
9772;DHT22;4925;52.588;13.370;2023-05-10T11:09:11;25.00;52.90
9772;DHT22;4925;52.588;13.370;2023-05-10T11:11:54;25.40;51.10
9772;DHT22;4925;52.588;13.370;2023-05-10T11:14:24;25.20;49.50
9772;DHT22;4925;52.588;13.370;2023-05-10T11:16:50;25.60;49.20
9772;DHT22;4925;52.588;13.370;2023-05-10T11:19:17;25.90;48.80
9772;DHT22;4925;52.588;13.370;2023-05-10T11:21:51;25.90;47.90
9772;DHT22;4925;52.588;13.370;2023-05-10T11:24:22;26.00;48.10
9772;DHT22;4925;52.588;13.370;2023-05-10T11:26:51;26.10;46.60
9772;DHT22;4925;52.588;13.370;2023-05-10T11:29:17;26.10;46.30
9772;DHT22;4925;52.588;13.370;2023-05-10T11:31:44;26.60;46.30
9772;DHT22;4925;52.588;13.370;2023-05-10T11:34:11;26.50;44.10
9772;DHT22;4925;52.588;13.370;2023-05-10T11:36:37;26.40;43.50
9772;DHT22;4925;52.588;13.370;2023-05-10T11:39:03;26.10;44.30
9772;DHT22;4925;52.588;13.370;2023-05-10T11:41:30;26.00;42.90
9772;DHT22;4925;52.588;13.370;2023-05-10T11:43:57;26.50;43.10
9772;DHT22;4925;52.588;13.370;2023-05-10T11:46:24;26.40;43.20
9772;DHT22;4925;52.588;13.370;2023-05-10T11:48:53;25.80;42.90
9772;DHT22;4925;52.588;13.370;2023-05-10T11:51:23;26.00;43.70
9772;DHT22;4925;52.588;13.370;2023-05-10T11:53:53;25.90;42.70
9772;DHT22;4925;52.588;13.370;2023-05-10T11:56:19;26.40;42.90
9772;DHT22;4925;52.588;13.370;2023-05-10T11:58:54;26.00;42.50
9772;DHT22;4925;52.588;13.370;2023-05-10T12:01:21;25.80;41.90
9772;DHT22;4925;52.588;13.370;2023-05-10T12:03:51;26.30;42.00
9772;DHT22;4925;52.588;13.370;2023-05-10T12:06:19;26.60;41.90
9772;DHT22;4925;52.588;13.370;2023-05-10T12:08:46;26.80;40.90
9772;DHT22;4925;52.588;13.370;2023-05-10T12:11:13;27.00;40.50
9772;DHT22;4925;52.588;13.370;2023-05-10T12:13:42;26.70;40.00
9772;DHT22;4925;52.588;13.370;2023-05-10T12:16:17;27.10;39.40
9772;DHT22;4925;52.588;13.370;2023-05-10T12:18:42;27.40;38.90
9772;DHT22;4925;52.588;13.370;2023-05-10T12:21:13;27.70;37.60
9772;DHT22;4925;52.588;13.370;2023-05-10T12:23:41;27.20;35.70
9772;DHT22;4925;52.588;13.370;2023-05-10T12:26:09;27.80;36.50
9772;DHT22;4925;52.588;13.370;2023-05-10T12:28:36;27.90;35.10
9772;DHT22;4925;52.588;13.370;2023-05-10T12:31:02;28.20;35.30
9772;DHT22;4925;52.588;13.370;2023-05-10T12:33:36;27.90;34.00
9772;DHT22;4925;52.588;13.370;2023-05-10T12:36:04;27.40;34.20
9772;DHT22;4925;52.588;13.370;2023-05-10T12:38:38;27.50;34.40
9772;DHT22;4925;52.588;13.370;2023-05-10T12:41:06;27.50;34.30
9772;DHT22;4925;52.588;13.370;2023-05-10T12:43:32;27.90;33.50
9772;DHT22;4925;52.588;13.370;2023-05-10T12:45:58;27.90;32.10
9772;DHT22;4925;52.588;13.370;2023-05-10T12:48:29;27.70;32.20
9772;DHT22;4925;52.588;13.370;2023-05-10T12:50:56;27.80;32.20
9772;DHT22;4925;52.588;13.370;2023-05-10T12:53:22;28.10;31.70
9772;DHT22;4925;52.588;13.370;2023-05-10T12:55:48;28.10;29.80
9772;DHT22;4925;52.588;13.370;2023-05-10T12:58:14;27.70;29.60
9772;DHT22;4925;52.588;13.370;2023-05-10T13:00:39;27.90;30.00
9772;DHT22;4925;52.588;13.370;2023-05-10T13:03:05;27.50;30.00
9772;DHT22;4925;52.588;13.370;2023-05-10T13:05:32;27.20;30.30
9772;DHT22;4925;52.588;13.370;2023-05-10T13:07:58;27.50;31.20
9772;DHT22;4925;52.588;13.370;2023-05-10T13:10:24;27.70;31.40
9772;DHT22;4925;52.588;13.370;2023-05-10T13:12:50;28.00;31.40
9772;DHT22;4925;52.588;13.370;2023-05-10T13:15:16;28.30;31.30
9772;DHT22;4925;52.588;13.370;2023-05-10T13:17:42;28.70;30.60
9772;DHT22;4925;52.588;13.370;2023-05-10T13:20:08;28.60;29.40
9772;DHT22;4925;52.588;13.370;2023-05-10T13:22:35;27.90;28.50
9772;DHT22;4925;52.588;13.370;2023-05-10T13:25:01;27.70;28.50
9772;DHT22;4925;52.588;13.370;2023-05-10T13:27:27;27.40;29.60
9772;DHT22;4925;52.588;13.370;2023-05-10T13:29:53;27.50;29.50
9772;DHT22;4925;52.588;13.370;2023-05-10T13:32:18;27.00;30.50
9772;DHT22;4925;52.588;13.370;2023-05-10T13:34:44;26.90;30.80
9772;DHT22;4925;52.588;13.370;2023-05-10T13:37:10;27.10;30.30
9772;DHT22;4925;52.588;13.370;2023-05-10T13:39:35;27.50;29.60
9772;DHT22;4925;52.588;13.370;2023-05-10T13:42:03;27.70;29.60
9772;DHT22;4925;52.588;13.370;2023-05-10T13:44:29;28.00;28.70
9772;DHT22;4925;52.588;13.370;2023-05-10T13:46:55;28.30;27.80
9772;DHT22;4925;52.588;13.370;2023-05-10T13:49:21;28.40;26.70
9772;DHT22;4925;52.588;13.370;2023-05-10T13:51:47;28.30;26.40
9772;DHT22;4925;52.588;13.370;2023-05-10T13:54:13;27.80;26.80
9772;DHT22;4925;52.588;13.370;2023-05-10T13:56:39;27.40;28.30
9772;DHT22;4925;52.588;13.370;2023-05-10T13:59:05;27.20;28.80
9772;DHT22;4925;52.588;13.370;2023-05-10T14:01:31;27.30;29.00
9772;DHT22;4925;52.588;13.370;2023-05-10T14:03:57;26.90;29.30
9772;DHT22;4925;52.588;13.370;2023-05-10T14:06:22;27.20;30.00
9772;DHT22;4925;52.588;13.370;2023-05-10T14:08:48;27.20;29.10
9772;DHT22;4925;52.588;13.370;2023-05-10T14:11:14;27.10;28.80
9772;DHT22;4925;52.588;13.370;2023-05-10T14:13:39;27.30;28.70
9772;DHT22;4925;52.588;13.370;2023-05-10T14:16:05;27.40;28.40
9772;DHT22;4925;52.588;13.370;2023-05-10T14:18:31;27.50;28.30
9772;DHT22;4925;52.588;13.370;2023-05-10T14:20:57;27.30;28.30
9772;DHT22;4925;52.588;13.370;2023-05-10T14:23:23;27.10;28.00
9772;DHT22;4925;52.588;13.370;2023-05-10T14:25:52;27.30;27.70
9772;DHT22;4925;52.588;13.370;2023-05-10T14:28:18;27.60;27.80
9772;DHT22;4925;52.588;13.370;2023-05-10T14:30:44;27.90;27.10
9772;DHT22;4925;52.588;13.370;2023-05-10T14:33:10;28.00;26.90
9772;DHT22;4925;52.588;13.370;2023-05-10T14:35:35;27.50;26.30
9772;DHT22;4925;52.588;13.370;2023-05-10T14:38:02;27.80;26.60
9772;DHT22;4925;52.588;13.370;2023-05-10T14:40:29;27.80;26.00
9772;DHT22;4925;52.588;13.370;2023-05-10T14:42:55;27.50;26.70
9772;DHT22;4925;52.588;13.370;2023-05-10T14:45:22;27.40;27.10
9772;DHT22;4925;52.588;13.370;2023-05-10T14:47:48;27.60;27.00
9772;DHT22;4925;52.588;13.370;2023-05-10T14:50:15;27.70;26.80
9772;DHT22;4925;52.588;13.370;2023-05-10T14:52:42;27.70;26.20
9772;DHT22;4925;52.588;13.370;2023-05-10T14:55:08;27.50;26.60
9772;DHT22;4925;52.588;13.370;2023-05-10T14:57:34;27.40;26.00
9772;DHT22;4925;52.588;13.370;2023-05-10T14:59:59;27.50;25.30
9772;DHT22;4925;52.588;13.370;2023-05-10T15:02:25;27.50;25.90
9772;DHT22;4925;52.588;13.370;2023-05-10T15:04:51;27.50;26.00
9772;DHT22;4925;52.588;13.370;2023-05-10T15:07:16;27.30;25.60
9772;DHT22;4925;52.588;13.370;2023-05-10T15:09:44;27.30;25.80
9772;DHT22;4925;52.588;13.370;2023-05-10T15:12:09;26.70;25.40
9772;DHT22;4925;52.588;13.370;2023-05-10T15:14:35;26.50;26.10
9772;DHT22;4925;52.588;13.370;2023-05-10T15:17:02;26.30;26.50
9772;DHT22;4925;52.588;13.370;2023-05-10T15:19:28;26.20;26.90
9772;DHT22;4925;52.588;13.370;2023-05-10T15:21:54;26.20;27.20
9772;DHT22;4925;52.588;13.370;2023-05-10T15:24:21;26.10;27.20
9772;DHT22;4925;52.588;13.370;2023-05-10T15:26:47;26.20;27.30
9772;DHT22;4925;52.588;13.370;2023-05-10T15:29:13;26.50;27.50
9772;DHT22;4925;52.588;13.370;2023-05-10T15:31:45;26.60;26.90
9772;DHT22;4925;52.588;13.370;2023-05-10T15:34:11;26.60;27.20
9772;DHT22;4925;52.588;13.370;2023-05-10T15:36:37;26.50;27.10
9772;DHT22;4925;52.588;13.370;2023-05-10T15:39:02;26.20;26.50
9772;DHT22;4925;52.588;13.370;2023-05-10T15:41:29;26.20;26.90
9772;DHT22;4925;52.588;13.370;2023-05-10T15:43:55;26.20;27.50
9772;DHT22;4925;52.588;13.370;2023-05-10T15:46:21;26.10;27.80
9772;DHT22;4925;52.588;13.370;2023-05-10T15:48:47;25.90;28.00
9772;DHT22;4925;52.588;13.370;2023-05-10T15:51:12;25.40;28.70
9772;DHT22;4925;52.588;13.370;2023-05-10T15:53:38;25.20;29.20
9772;DHT22;4925;52.588;13.370;2023-05-10T15:56:04;25.00;29.50
9772;DHT22;4925;52.588;13.370;2023-05-10T15:58:30;24.90;29.80
9772;DHT22;4925;52.588;13.370;2023-05-10T16:00:56;24.60;29.50
9772;DHT22;4925;52.588;13.370;2023-05-10T16:03:22;24.50;29.60
9772;DHT22;4925;52.588;13.370;2023-05-10T16:05:48;24.50;30.00
9772;DHT22;4925;52.588;13.370;2023-05-10T16:08:14;24.40;31.00
9772;DHT22;4925;52.588;13.370;2023-05-10T16:10:39;24.10;31.50
9772;DHT22;4925;52.588;13.370;2023-05-10T16:13:07;24.20;32.30
9772;DHT22;4925;52.588;13.370;2023-05-10T16:15:33;24.30;32.90